Time;durP1;ratioP1;P1;durP2;ratioP2;P2;SDS_P1;SDS_P2;PMS_P1;PMS_P2;Temp;Humidity;BMP_temperature;BMP_pressure;BME280_temperature;BME280_humidity;BME280_pressure;Samples;Min_cycle;Max_cycle;Signal;HPM_P1;HPM_P2
2023/12/25 00:01:12;;;;;;;3.67;0.80;;;8.70;99.90;;;;;;5040767;28;20022;-88
2023/12/25 00:03:38;;;;;;;9.13;1.33;;;8.80;99.90;;;;;;5042277;28;20014;-88
2023/12/25 00:06:04;;;;;;;4.68;1.30;;;8.80;99.90;;;;;;5039755;28;20072;-89
2023/12/25 00:08:29;;;;;;;5.15;0.88;;;8.80;99.90;;;;;;5041075;28;20025;-88
2023/12/25 00:10:55;;;;;;;2.58;0.60;;;8.80;99.90;;;;;;5037020;28;20029;-89
2023/12/25 00:13:21;;;;;;;5.35;1.02;;;8.80;99.90;;;;;;5034680;28;20017;-88
2023/12/25 00:15:47;;;;;;;6.32;1.90;;;8.80;99.90;;;;;;5033839;28;20239;-88
2023/12/25 00:18:12;;;;;;;5.82;1.20;;;8.80;99.90;;;;;;5033370;28;20032;-88
2023/12/25 00:20:46;;;;;;;3.10;0.70;;;8.80;99.90;;;;;;5033663;28;20080;-87
2023/12/25 00:23:11;;;;;;;8.57;1.25;;;8.80;99.90;;;;;;5033159;28;20088;-88
2023/12/25 00:25:37;;;;;;;7.07;1.05;;;8.80;99.90;;;;;;5034120;28;20116;-88
2023/12/25 00:28:03;;;;;;;6.22;1.35;;;8.90;99.90;;;;;;5032965;28;20025;-87
2023/12/25 00:30:29;;;;;;;11.10;1.60;;;8.90;99.90;;;;;;5034059;28;20033;-89
2023/12/25 00:32:54;;;;;;;4.43;1.17;;;8.90;99.90;;;;;;5032395;28;20045;-88
2023/12/25 00:35:20;;;;;;;5.72;1.30;;;8.90;99.90;;;;;;5032697;28;20053;-88
2023/12/25 00:37:46;;;;;;;5.40;1.30;;;8.90;99.90;;;;;;5032845;28;20025;-88
2023/12/25 00:40:11;;;;;;;11.75;1.38;;;8.90;99.90;;;;;;5033761;28;20380;-89
2023/12/25 00:42:37;;;;;;;9.18;0.90;;;8.90;99.90;;;;;;5032697;28;20028;-89
2023/12/25 00:45:03;;;;;;;9.32;1.35;;;8.90;99.90;;;;;;5033445;28;20384;-86
2023/12/25 00:47:29;;;;;;;7.50;1.20;;;8.90;99.90;;;;;;5033516;28;20033;-86
2023/12/25 00:49:54;;;;;;;7.47;1.20;;;9.00;99.90;;;;;;5032532;28;20021;-86
2023/12/25 00:52:20;;;;;;;7.15;1.75;;;8.90;99.90;;;;;;5032449;28;20035;-88
2023/12/25 00:54:46;;;;;;;1.73;1.10;;;8.90;99.90;;;;;;5032242;28;20025;-87
2023/12/25 00:57:11;;;;;;;13.43;1.95;;;8.90;99.90;;;;;;5032388;28;20026;-88
2023/12/25 00:59:37;;;;;;;6.55;1.55;;;8.90;99.90;;;;;;5033609;28;20433;-88
2023/12/25 01:02:03;;;;;;;6.13;1.40;;;8.90;99.90;;;;;;5032344;28;20385;-87
2023/12/25 01:04:29;;;;;;;13.77;2.00;;;8.90;99.90;;;;;;5032246;28;20025;-88
2023/12/25 01:06:54;;;;;;;7.55;1.23;;;8.90;99.90;;;;;;5033369;28;20082;-87
2023/12/25 01:09:20;;;;;;;6.97;2.30;;;9.00;99.90;;;;;;5032356;28;20034;-88
2023/12/25 01:11:46;;;;;;;8.65;2.08;;;9.00;99.90;;;;;;5032429;28;20034;-88
2023/12/25 01:14:12;;;;;;;11.60;2.20;;;8.90;99.90;;;;;;5033003;28;20384;-88
2023/12/25 01:16:38;;;;;;;10.65;2.25;;;9.00;99.90;;;;;;5036274;28;20029;-89
2023/12/25 01:19:04;;;;;;;16.98;2.90;;;8.90;99.90;;;;;;5037536;28;20037;-88
2023/12/25 01:21:32;;;;;;;9.45;2.25;;;8.90;99.90;;;;;;5036199;28;20030;-88
2023/12/25 01:23:58;;;;;;;4.75;2.03;;;8.90;99.90;;;;;;5035943;28;20021;-88
2023/12/25 01:26:24;;;;;;;10.65;3.03;;;8.90;99.90;;;;;;5037699;28;20034;-89
2023/12/25 01:28:49;;;;;;;11.45;3.00;;;8.90;99.90;;;;;;5037428;28;20026;-88
2023/12/25 01:31:15;;;;;;;14.00;3.30;;;8.90;99.90;;;;;;5036469;28;20033;-87
2023/12/25 01:33:41;;;;;;;14.95;2.78;;;8.80;99.90;;;;;;5036298;28;20476;-88
2023/12/25 01:36:06;;;;;;;9.43;2.33;;;8.80;99.90;;;;;;5036476;28;20032;-88
2023/12/25 01:38:32;;;;;;;5.40;2.00;;;8.80;99.90;;;;;;5037388;28;20431;-88
2023/12/25 01:40:58;;;;;;;11.57;2.85;;;8.80;99.90;;;;;;5036532;28;20036;-87
2023/12/25 01:43:23;;;;;;;8.82;2.28;;;8.80;99.90;;;;;;5036858;28;20495;-88
2023/12/25 01:45:49;;;;;;;9.02;2.25;;;8.80;99.90;;;;;;5036838;28;20510;-88
2023/12/25 01:48:15;;;;;;;5.20;1.95;;;8.80;99.90;;;;;;5036967;28;20034;-88
2023/12/25 01:50:40;;;;;;;8.40;1.85;;;8.70;99.90;;;;;;5038355;28;20033;-88
2023/12/25 01:53:06;;;;;;;12.50;2.95;;;8.80;99.90;;;;;;5036869;28;20026;-89
2023/12/25 01:55:33;;;;;;;9.05;1.65;;;8.80;99.90;;;;;;5038522;28;20032;-86
2023/12/25 01:57:58;;;;;;;11.70;1.60;;;8.70;99.90;;;;;;5044142;28;20082;-88
2023/12/25 02:00:24;;;;;;;10.40;2.95;;;8.70;99.90;;;;;;5044796;28;20025;-87
2023/12/25 02:02:50;;;;;;;14.18;2.42;;;8.70;99.90;;;;;;5044080;28;20025;-87
2023/12/25 02:05:16;;;;;;;11.27;1.42;;;8.70;99.90;;;;;;5042820;28;20042;-87
2023/12/25 02:07:43;;;;;;;11.07;2.28;;;8.60;99.90;;;;;;5041910;28;20028;-87
2023/12/25 02:10:09;;;;;;;12.07;2.03;;;8.70;99.90;;;;;;5040700;28;20141;-87
2023/12/25 02:12:38;;;;;;;8.68;1.33;;;8.60;99.90;;;;;;5039323;28;20017;-87
2023/12/25 02:15:04;;;;;;;17.00;2.60;;;8.60;99.90;;;;;;5039510;28;20029;-88
2023/12/25 02:17:31;;;;;;;9.25;2.35;;;8.70;99.90;;;;;;5037226;28;20030;-88
2023/12/25 02:19:57;;;;;;;7.28;1.10;;;8.60;99.90;;;;;;5036950;28;20071;-88
2023/12/25 02:22:23;;;;;;;12.45;1.60;;;8.60;99.90;;;;;;5035420;28;20061;-87
2023/12/25 02:25:00;;;;;;;14.73;1.77;;;8.60;99.90;;;;;;5035645;28;20057;-88
2023/12/25 02:27:26;;;;;;;9.00;1.63;;;8.60;99.90;;;;;;5035684;28;20033;-89
2023/12/25 02:29:52;;;;;;;11.55;1.58;;;8.60;99.90;;;;;;5034937;28;20025;-87
2023/12/25 02:32:18;;;;;;;10.43;1.58;;;8.60;99.90;;;;;;5035940;28;20176;-88
2023/12/25 02:34:44;;;;;;;7.30;1.27;;;8.60;99.90;;;;;;5035033;28;20083;-85
2023/12/25 02:37:10;;;;;;;6.45;1.25;;;8.60;99.90;;;;;;5034709;28;20207;-87
2023/12/25 02:39:36;;;;;;;9.55;1.35;;;8.70;99.90;;;;;;5034791;28;20484;-87
2023/12/25 02:42:01;;;;;;;7.65;1.13;;;8.70;99.90;;;;;;5034366;28;20032;-87
2023/12/25 02:44:27;;;;;;;8.38;1.20;;;8.70;99.90;;;;;;5034546;28;20399;-87
2023/12/25 02:46:53;;;;;;;10.13;1.35;;;8.70;99.90;;;;;;5034633;28;20306;-86
2023/12/25 02:49:18;;;;;;;9.23;1.90;;;8.70;99.90;;;;;;5034561;28;20457;-87
2023/12/25 02:51:44;;;;;;;7.75;1.10;;;8.70;99.90;;;;;;5047304;28;20032;-86
2023/12/25 02:54:10;;;;;;;8.80;2.33;;;8.70;99.90;;;;;;5050361;28;20568;-87
2023/12/25 02:56:35;;;;;;;9.90;1.50;;;8.80;99.90;;;;;;5040841;28;20021;-87
2023/12/25 02:59:01;;;;;;;12.63;1.67;;;8.80;99.90;;;;;;5034894;28;20030;-87
2023/12/25 03:01:27;;;;;;;9.57;2.13;;;8.80;99.90;;;;;;5036109;28;20044;-87
2023/12/25 03:03:52;;;;;;;9.10;1.58;;;8.80;99.90;;;;;;5035667;28;20155;-87
2023/12/25 03:06:18;;;;;;;8.02;1.42;;;8.80;99.90;;;;;;5035179;28;20041;-87
2023/12/25 03:08:44;;;;;;;4.72;1.70;;;8.90;99.90;;;;;;5034256;28;20049;-87
2023/12/25 03:11:09;;;;;;;10.00;3.20;;;8.80;99.90;;;;;;5035415;28;20030;-88
2023/12/25 03:13:35;;;;;;;9.85;1.70;;;8.80;99.90;;;;;;5034164;28;20022;-88
2023/12/25 03:16:05;;;;;;;5.50;1.10;;;8.80;99.90;;;;;;5034373;28;20071;-88
2023/12/25 03:18:32;;;;;;;7.20;1.30;;;8.80;99.90;;;;;;5035499;28;20037;-88
2023/12/25 03:20:57;;;;;;;4.55;0.95;;;8.80;99.90;;;;;;5035172;28;20045;-88
2023/12/25 03:23:23;;;;;;;4.43;0.70;;;8.80;99.90;;;;;;5035702;28;20040;-88
2023/12/25 03:25:49;;;;;;;3.47;0.75;;;8.80;99.90;;;;;;5033948;28;20041;-88
2023/12/25 03:28:14;;;;;;;3.33;0.85;;;8.90;99.90;;;;;;5034226;28;20021;-88
2023/12/25 03:30:40;;;;;;;6.43;1.02;;;8.90;99.90;;;;;;5034468;28;20036;-88
2023/12/25 03:33:07;;;;;;;5.05;0.98;;;8.90;99.90;;;;;;5034271;28;20120;-88
2023/12/25 03:35:33;;;;;;;6.70;1.25;;;8.90;99.90;;;;;;5034678;28;20073;-88
2023/12/25 03:37:59;;;;;;;4.25;0.82;;;8.90;99.90;;;;;;5036170;28;20021;-89
2023/12/25 03:40:25;;;;;;;9.15;1.27;;;9.00;99.90;;;;;;5036210;28;20036;-87
2023/12/25 03:42:52;;;;;;;6.70;1.30;;;9.00;99.90;;;;;;5034231;28;20022;-87
2023/12/25 03:45:17;;;;;;;8.02;1.35;;;9.10;99.90;;;;;;5035293;28;20025;-87
2023/12/25 03:47:43;;;;;;;14.52;2.78;;;9.00;99.90;;;;;;5033885;28;20476;-87
2023/12/25 03:50:09;;;;;;;4.80;1.40;;;9.00;99.90;;;;;;5033857;28;20155;-87
2023/12/25 03:52:34;;;;;;;9.70;1.30;;;9.10;99.90;;;;;;5033504;28;20033;-87
2023/12/25 03:55:00;;;;;;;5.28;1.17;;;9.10;99.90;;;;;;5034610;28;20112;-88
2023/12/25 03:57:26;;;;;;;9.88;2.05;;;9.10;99.90;;;;;;5033255;28;20404;-88
2023/12/25 03:59:51;;;;;;;8.38;1.17;;;9.10;99.90;;;;;;5033314;28;20116;-88
2023/12/25 04:02:17;;;;;;;8.80;2.03;;;9.10;99.90;;;;;;5033617;28;20026;-87
2023/12/25 04:04:43;;;;;;;6.65;1.10;;;9.10;99.90;;;;;;5032924;28;20033;-87
2023/12/25 04:07:08;;;;;;;8.07;1.38;;;9.10;99.90;;;;;;5033514;28;20082;-86
2023/12/25 04:09:34;;;;;;;4.38;0.93;;;9.10;99.90;;;;;;5034239;28;20464;-86
2023/12/25 04:12:00;;;;;;;5.90;1.13;;;9.10;99.90;;;;;;5034634;28;20148;-89
2023/12/25 04:14:25;;;;;;;16.70;2.28;;;9.10;99.90;;;;;;5036128;28;20021;-87
2023/12/25 04:16:51;;;;;;;6.75;1.15;;;9.10;99.90;;;;;;5035937;28;20036;-86
2023/12/25 04:19:17;;;;;;;9.73;1.42;;;9.10;99.90;;;;;;5035398;28;20499;-86
2023/12/25 04:21:42;;;;;;;9.23;2.10;;;9.10;99.90;;;;;;5034457;28;20029;-87
2023/12/25 04:24:08;;;;;;;13.35;1.50;;;9.00;99.90;;;;;;5034173;28;20568;-89
2023/12/25 04:26:34;;;;;;;6.97;1.30;;;9.00;99.90;;;;;;5035071;28;20030;-87
2023/12/25 04:28:59;;;;;;;6.57;1.42;;;9.00;99.90;;;;;;5033897;28;20053;-88
2023/12/25 04:31:25;;;;;;;4.30;1.15;;;9.10;99.90;;;;;;5032704;28;20045;-88
2023/12/25 04:33:52;;;;;;;9.43;2.20;;;9.10;99.90;;;;;;5033803;28;20520;-87
2023/12/25 04:36:17;;;;;;;9.68;1.50;;;9.10;99.90;;;;;;5033280;28;20112;-89
2023/12/25 04:38:43;;;;;;;11.95;1.77;;;9.10;99.90;;;;;;5032926;28;20028;-88
2023/12/25 04:41:09;;;;;;;17.30;2.88;;;9.10;99.90;;;;;;5032819;28;20127;-87
2023/12/25 04:43:35;;;;;;;13.80;3.45;;;9.10;99.90;;;;;;5032600;28;20029;-87
2023/12/25 04:46:04;;;;;;;8.60;1.30;;;9.10;99.90;;;;;;5033768;28;20384;-87
2023/12/25 04:48:30;;;;;;;8.98;1.48;;;9.10;99.90;;;;;;5031682;28;20120;-87
2023/12/25 04:50:56;;;;;;;8.48;1.60;;;9.10;99.90;;;;;;5032159;28;20087;-87
2023/12/25 04:53:22;;;;;;;12.70;1.63;;;9.10;99.90;;;;;;5032603;28;20075;-88
2023/12/25 04:55:48;;;;;;;4.63;1.30;;;9.00;99.90;;;;;;5033901;28;20448;-88
2023/12/25 04:58:13;;;;;;;11.77;2.28;;;9.10;99.90;;;;;;5032414;28;20492;-89
2023/12/25 05:00:39;;;;;;;12.77;1.23;;;9.00;99.90;;;;;;5032348;28;20029;-89
2023/12/25 05:03:05;;;;;;;9.10;1.23;;;9.00;99.90;;;;;;5031948;28;20031;-88
2023/12/25 05:05:30;;;;;;;7.55;1.83;;;9.00;99.90;;;;;;5032188;28;20508;-88
2023/12/25 05:07:56;;;;;;;9.65;1.77;;;9.00;99.90;;;;;;5032442;28;20029;-88
2023/12/25 05:10:22;;;;;;;18.20;2.92;;;9.00;99.90;;;;;;5032530;28;20041;-90
2023/12/25 05:12:48;;;;;;;10.85;2.03;;;9.10;99.90;;;;;;5033331;28;20026;-89
2023/12/25 05:15:13;;;;;;;15.50;2.15;;;9.10;99.90;;;;;;5033267;28;20025;-89
2023/12/25 05:17:39;;;;;;;7.95;2.00;;;9.10;99.90;;;;;;5033038;28;20032;-87
2023/12/25 05:20:06;;;;;;;16.40;1.98;;;9.10;99.90;;;;;;5032265;28;20025;-87
2023/12/25 05:22:32;;;;;;;10.20;1.45;;;9.10;99.90;;;;;;5032339;28;20105;-88
2023/12/25 05:24:58;;;;;;;11.23;1.40;;;9.10;99.90;;;;;;5031994;28;20168;-89
2023/12/25 05:27:23;;;;;;;13.30;2.67;;;9.10;99.90;;;;;;5032389;28;20037;-89
2023/12/25 05:29:49;;;;;;;11.73;1.38;;;9.20;99.90;;;;;;5033274;28;20024;-88
2023/12/25 05:32:15;;;;;;;11.23;3.30;;;9.20;99.90;;;;;;5033590;28;20056;-88
2023/12/25 05:34:41;;;;;;;7.28;1.30;;;9.20;99.90;;;;;;5032620;28;20523;-88
2023/12/25 05:37:06;;;;;;;13.15;1.58;;;9.20;99.90;;;;;;5032400;28;20084;-89
2023/12/25 05:39:32;;;;;;;12.18;2.92;;;9.20;99.90;;;;;;5032398;28;20025;-90
2023/12/25 05:41:58;;;;;;;13.32;1.27;;;9.10;99.90;;;;;;5032247;28;20507;-88
2023/12/25 05:44:23;;;;;;;12.63;2.00;;;9.20;99.90;;;;;;5033205;28;20057;-89
2023/12/25 05:46:49;;;;;;;7.53;1.17;;;9.10;99.90;;;;;;5033165;28;20025;-89
2023/12/25 05:49:15;;;;;;;6.82;1.20;;;9.20;99.90;;;;;;5031998;28;20025;-88
2023/12/25 05:51:40;;;;;;;15.02;1.92;;;9.10;99.90;;;;;;5031927;28;20076;-89
2023/12/25 05:54:06;;;;;;;6.85;1.10;;;9.10;99.90;;;;;;5032183;28;20075;-89
2023/12/25 05:56:32;;;;;;;10.30;1.60;;;9.10;99.90;;;;;;5032160;28;20029;-89
2023/12/25 05:58:58;;;;;;;9.13;1.45;;;9.10;99.90;;;;;;5033502;28;20060;-88
2023/12/25 06:01:25;;;;;;;10.95;1.92;;;9.10;99.90;;;;;;5034434;28;20030;-88
2023/12/25 06:03:51;;;;;;;5.35;1.40;;;9.10;99.90;;;;;;5035628;28;20053;-89
2023/12/25 06:06:17;;;;;;;11.80;1.48;;;9.10;99.90;;;;;;5035718;28;20076;-88
2023/12/25 06:08:43;;;;;;;9.18;1.58;;;9.10;99.90;;;;;;5035752;28;20021;-88
2023/12/25 06:11:09;;;;;;;9.88;1.40;;;9.10;99.90;;;;;;5035766;28;20524;-89
2023/12/25 06:13:34;;;;;;;11.05;1.63;;;9.10;99.90;;;;;;5035310;28;20103;-88
2023/12/25 06:16:01;;;;;;;9.77;1.60;;;9.10;99.90;;;;;;5035456;28;20039;-88
2023/12/25 06:18:27;;;;;;;14.70;1.80;;;9.10;99.90;;;;;;5035478;28;20049;-88
2023/12/25 06:20:52;;;;;;;8.10;1.15;;;9.10;99.90;;;;;;5035224;28;20069;-88
2023/12/25 06:23:18;;;;;;;6.25;1.27;;;9.20;99.90;;;;;;5035308;28;20025;-88
2023/12/25 06:25:44;;;;;;;15.98;2.08;;;9.10;99.90;;;;;;5035045;28;20037;-89
2023/12/25 06:28:10;;;;;;;11.00;2.13;;;9.10;99.90;;;;;;5035566;28;20510;-88
2023/12/25 06:30:36;;;;;;;9.20;1.83;;;9.10;99.90;;;;;;5036719;28;20044;-88
2023/12/25 06:33:01;;;;;;;5.95;1.67;;;9.10;99.90;;;;;;5035474;28;20156;-88
2023/12/25 06:35:27;;;;;;;10.30;2.00;;;9.10;99.90;;;;;;5035440;28;20033;-88
2023/12/25 06:37:53;;;;;;;9.02;1.60;;;9.00;99.90;;;;;;5034961;28;20030;-88
2023/12/25 06:40:18;;;;;;;10.82;2.10;;;9.00;99.90;;;;;;5034571;28;20055;-88
2023/12/25 06:42:44;;;;;;;9.98;1.58;;;9.00;99.90;;;;;;5034639;28;20029;-89
2023/12/25 06:45:10;;;;;;;13.60;1.90;;;9.00;99.90;;;;;;5034532;28;20045;-88
2023/12/25 06:47:36;;;;;;;7.05;1.92;;;9.00;99.90;;;;;;5035918;28;20017;-89
2023/12/25 06:50:02;;;;;;;8.07;2.97;;;9.00;99.90;;;;;;5035934;28;20026;-87
2023/12/25 06:52:27;;;;;;;9.95;2.28;;;9.00;99.90;;;;;;5035784;28;20095;-88
2023/12/25 06:54:53;;;;;;;7.97;1.85;;;9.00;99.90;;;;;;5034459;28;20025;-88
2023/12/25 06:57:19;;;;;;;4.95;1.45;;;8.90;99.90;;;;;;5035569;28;20038;-88
2023/12/25 06:59:45;;;;;;;7.85;1.90;;;9.00;99.90;;;;;;5034495;28;20045;-87
2023/12/25 07:02:11;;;;;;;9.90;1.65;;;8.90;99.90;;;;;;5035904;28;20029;-87
2023/12/25 07:04:37;;;;;;;9.75;1.88;;;8.90;99.90;;;;;;5035478;28;20029;-88
2023/12/25 07:07:03;;;;;;;11.07;1.98;;;8.90;99.90;;;;;;5035645;28;20045;-87
2023/12/25 07:09:29;;;;;;;19.27;1.92;;;8.90;99.90;;;;;;5034415;28;20021;-87
2023/12/25 07:11:55;;;;;;;8.55;1.42;;;8.90;99.90;;;;;;5033226;28;20079;-88
2023/12/25 07:14:22;;;;;;;11.25;1.45;;;8.90;99.90;;;;;;5034312;28;20468;-88
2023/12/25 07:16:48;;;;;;;11.48;2.15;;;8.90;99.90;;;;;;5034585;28;20037;-88
2023/12/25 07:19:14;;;;;;;10.77;1.73;;;8.90;99.90;;;;;;5033884;28;20032;-88
2023/12/25 07:21:41;;;;;;;11.63;2.00;;;8.90;99.90;;;;;;5034454;28;20112;-88
2023/12/25 07:24:07;;;;;;;8.23;1.80;;;8.90;99.90;;;;;;5033950;28;20028;-88
2023/12/25 07:26:33;;;;;;;9.10;2.00;;;8.90;99.90;;;;;;5033481;28;20036;-87
2023/12/25 07:28:58;;;;;;;12.10;2.38;;;8.90;99.90;;;;;;5034981;28;20029;-88
2023/12/25 07:31:24;;;;;;;8.85;1.58;;;8.90;99.90;;;;;;5034770;28;20057;-87
2023/12/25 07:33:53;;;;;;;10.80;1.55;;;8.80;99.90;;;;;;5033493;28;20496;-87
2023/12/25 07:36:19;;;;;;;9.15;1.75;;;8.80;99.90;;;;;;5033815;28;20032;-87
2023/12/25 07:38:45;;;;;;;14.55;1.80;;;8.80;99.90;;;;;;5033596;28;20029;-87
2023/12/25 07:41:11;;;;;;;10.18;1.40;;;8.80;99.90;;;;;;5033421;28;20071;-87
2023/12/25 07:43:38;;;;;;;10.20;1.80;;;8.80;99.90;;;;;;5033634;28;20032;-88
2023/12/25 07:46:08;;;;;;;7.18;1.50;;;8.80;99.90;;;;;;5033647;28;20033;-89
2023/12/25 07:48:35;;;;;;;6.53;1.65;;;8.90;99.90;;;;;;5034643;28;20052;-87
2023/12/25 07:51:01;;;;;;;8.52;1.48;;;8.90;99.90;;;;;;5034838;28;20095;-89
2023/12/25 07:53:28;;;;;;;11.90;1.48;;;8.90;99.90;;;;;;5034084;28;20108;-87
2023/12/25 07:55:54;;;;;;;7.43;1.63;;;8.90;99.90;;;;;;5033906;28;20164;-88
2023/12/25 07:58:19;;;;;;;10.23;1.40;;;8.90;99.90;;;;;;5035421;28;20057;-88
2023/12/25 08:00:45;;;;;;;4.60;1.50;;;8.90;99.90;;;;;;5041665;28;20029;-87
2023/12/25 08:03:11;;;;;;;12.40;2.30;;;8.90;99.90;;;;;;5044008;28;20025;-86
2023/12/25 08:05:38;;;;;;;12.77;1.70;;;8.90;99.90;;;;;;5043032;28;20044;-86
2023/12/25 08:08:07;;;;;;;11.35;1.52;;;8.80;99.90;;;;;;5042432;28;20075;-88
2023/12/25 08:10:33;;;;;;;7.88;2.42;;;8.80;99.90;;;;;;5039954;28;20044;-86
2023/12/25 08:13:00;;;;;;;11.63;1.70;;;8.90;99.90;;;;;;5039156;28;20032;-88
2023/12/25 08:15:26;;;;;;;7.65;1.33;;;8.80;99.90;;;;;;5037394;28;20075;-87
2023/12/25 08:17:52;;;;;;;7.25;1.60;;;8.80;99.90;;;;;;5039065;28;20029;-87
2023/12/25 08:20:18;;;;;;;9.43;2.45;;;8.80;99.90;;;;;;5035836;28;20063;-88
2023/12/25 08:22:43;;;;;;;14.68;2.33;;;8.80;99.90;;;;;;5034871;28;20112;-87
2023/12/25 08:25:09;;;;;;;17.13;2.47;;;8.80;99.90;;;;;;5035161;28;20029;-87
2023/12/25 08:27:35;;;;;;;15.73;2.20;;;8.80;99.90;;;;;;5034493;28;20079;-88
2023/12/25 08:30:03;;;;;;;10.32;2.10;;;8.80;99.90;;;;;;5032794;28;20056;-88
2023/12/25 08:32:29;;;;;;;13.82;2.70;;;8.80;99.90;;;;;;5033416;28;20045;-88
2023/12/25 08:34:54;;;;;;;18.58;2.40;;;8.80;99.90;;;;;;5032727;28;20078;-88
2023/12/25 08:37:20;;;;;;;11.90;2.20;;;8.80;99.90;;;;;;5033550;28;20029;-89
2023/12/25 08:39:46;;;;;;;10.77;1.52;;;8.80;99.90;;;;;;5033865;28;20021;-89
2023/12/25 08:42:11;;;;;;;20.58;3.15;;;8.80;99.90;;;;;;5032566;28;20512;-87
2023/12/25 08:44:37;;;;;;;14.05;1.80;;;8.80;99.90;;;;;;5033348;28;20040;-88
2023/12/25 08:47:03;;;;;;;9.73;1.50;;;8.80;99.90;;;;;;5032685;28;20149;-89
2023/12/25 08:49:29;;;;;;;10.57;2.08;;;8.70;99.90;;;;;;5033443;28;20017;-86
2023/12/25 08:51:55;;;;;;;6.38;1.50;;;8.80;99.90;;;;;;5032347;28;20036;-87
2023/12/25 08:54:21;;;;;;;11.07;1.90;;;8.70;99.90;;;;;;5032304;28;20112;-89
2023/12/25 08:56:47;;;;;;;13.60;2.15;;;8.70;99.90;;;;;;5033415;28;20113;-87
2023/12/25 08:59:13;;;;;;;10.60;1.65;;;8.70;99.90;;;;;;5033589;28;20021;-89
2023/12/25 09:01:39;;;;;;;15.00;1.90;;;8.80;99.90;;;;;;5033223;28;20030;-88
2023/12/25 09:04:06;;;;;;;10.73;2.03;;;8.80;99.90;;;;;;5033077;28;20044;-88
2023/12/25 09:06:33;;;;;;;16.40;2.10;;;8.80;99.90;;;;;;5032149;28;20041;-88
2023/12/25 09:08:59;;;;;;;10.63;1.90;;;8.80;99.90;;;;;;5032091;28;20038;-88
2023/12/25 09:11:25;;;;;;;10.02;1.48;;;8.70;99.90;;;;;;5033317;28;20025;-88
2023/12/25 09:13:50;;;;;;;11.65;1.75;;;8.80;99.90;;;;;;5031886;28;20495;-88
2023/12/25 09:16:16;;;;;;;7.57;1.55;;;8.70;99.90;;;;;;5032049;28;20036;-88
2023/12/25 09:18:42;;;;;;;9.43;1.73;;;8.80;99.90;;;;;;5033030;28;20022;-88
2023/12/25 09:21:08;;;;;;;10.90;1.77;;;8.80;99.90;;;;;;5032105;28;20030;-87
2023/12/25 09:23:34;;;;;;;12.00;1.90;;;8.80;99.90;;;;;;5032089;28;20477;-87
2023/12/25 09:26:00;;;;;;;11.98;2.40;;;8.80;99.90;;;;;;5031825;28;20041;-88
2023/12/25 09:28:26;;;;;;;8.60;2.15;;;8.80;99.90;;;;;;5032176;28;20402;-88
2023/12/25 09:30:52;;;;;;;8.80;1.52;;;8.80;99.90;;;;;;5033198;28;20036;-88
2023/12/25 09:33:17;;;;;;;11.55;3.28;;;8.80;99.90;;;;;;5033306;28;20045;-88
2023/12/25 09:35:43;;;;;;;14.32;2.33;;;8.80;99.90;;;;;;5034268;28;20087;-88
2023/12/25 09:38:09;;;;;;;19.02;6.85;;;8.80;99.90;;;;;;5035920;28;20469;-88
2023/12/25 09:40:34;;;;;;;24.50;10.80;;;8.80;99.90;;;;;;5036122;28;20044;-88
2023/12/25 09:43:01;;;;;;;17.50;8.07;;;8.80;99.90;;;;;;5036956;28;20373;-88
2023/12/25 09:45:34;;;;;;;11.98;1.58;;;8.80;99.90;;;;;;5035582;28;20042;-88
2023/12/25 09:48:00;;;;;;;17.70;2.78;;;8.90;99.90;;;;;;5037095;28;20037;-88
2023/12/25 09:50:26;;;;;;;13.07;2.35;;;8.90;99.90;;;;;;5037777;28;20120;-88
2023/12/25 09:52:52;;;;;;;10.43;2.08;;;8.90;99.90;;;;;;5037393;28;20025;-88
2023/12/25 09:55:18;;;;;;;9.02;1.90;;;8.90;99.90;;;;;;5036916;28;20024;-88
2023/12/25 09:57:45;;;;;;;10.50;1.60;;;8.90;99.90;;;;;;5035552;28;20021;-89
2023/12/25 10:00:14;;;;;;;7.00;1.40;;;8.90;99.90;;;;;;5035611;28;20029;-88
2023/12/25 10:02:45;;;;;;;8.00;1.50;;;8.90;99.90;;;;;;5036704;28;20022;-89
2023/12/25 10:05:12;;;;;;;10.00;1.77;;;9.00;99.90;;;;;;5036797;28;20042;-89
2023/12/25 10:07:37;;;;;;;9.05;2.35;;;9.00;99.90;;;;;;5036636;28;20026;-88
2023/12/25 10:10:05;;;;;;;6.35;1.90;;;9.00;99.90;;;;;;5035346;28;20040;-89
2023/12/25 10:12:31;;;;;;;6.85;1.45;;;9.00;99.90;;;;;;5035374;28;20064;-88
2023/12/25 10:14:59;;;;;;;8.30;2.50;;;9.00;99.90;;;;;;5035702;28;20033;-89
2023/12/25 10:17:25;;;;;;;7.38;1.67;;;9.00;99.90;;;;;;5035230;28;20021;-88
2023/12/25 10:19:52;;;;;;;8.35;1.67;;;9.00;99.90;;;;;;5035353;28;20093;-89
2023/12/25 10:22:38;;;;;;;8.10;1.50;;;9.00;99.90;;;;;;5035436;28;20125;-89
2023/12/25 10:25:13;;;;;;;14.18;1.80;;;9.00;99.90;;;;;;5035111;28;20037;-89
2023/12/25 10:27:43;;;;;;;8.32;1.88;;;9.10;99.90;;;;;;5035108;28;20480;-88
2023/12/25 10:30:24;;;;;;;11.10;2.42;;;9.10;99.90;;;;;;5035341;28;20030;-89
2023/12/25 10:33:12;;;;;;;9.35;1.33;;;9.10;99.90;;;;;;5036060;28;20073;-89
2023/12/25 10:35:39;;;;;;;10.35;1.50;;;9.10;99.90;;;;;;5035135;28;20029;-89
2023/12/25 10:38:05;;;;;;;15.68;4.47;;;9.20;99.90;;;;;;5018710;28;20029;-89
2023/12/25 10:40:36;;;;;;;16.45;3.00;;;9.20;99.90;;;;;;5036564;28;20052;-89
2023/12/25 10:43:02;;;;;;;11.68;2.00;;;9.20;99.90;;;;;;5035440;28;20377;-88
2023/12/25 10:45:30;;;;;;;11.80;2.20;;;9.20;99.90;;;;;;5034737;28;20044;-89
2023/12/25 10:48:03;;;;;;;12.98;3.22;;;9.20;99.90;;;;;;5034394;28;20036;-87
2023/12/25 10:50:34;;;;;;;20.05;3.03;;;9.20;99.90;;;;;;5034838;28;20037;-88
2023/12/25 10:53:03;;;;;;;8.45;1.63;;;9.20;99.90;;;;;;5035997;28;20077;-88
2023/12/25 10:55:43;;;;;;;14.15;2.67;;;9.30;99.90;;;;;;5036071;28;20021;-89
2023/12/25 10:58:11;;;;;;;4.97;1.90;;;9.30;99.90;;;;;;5034609;28;20028;-89
2023/12/25 11:00:49;;;;;;;20.83;3.92;;;9.30;99.90;;;;;;5034951;28;20396;-88
2023/12/25 11:03:15;;;;;;;16.90;3.63;;;9.40;99.90;;;;;;5034569;28;20021;-89
2023/12/25 11:05:41;;;;;;;19.60;6.38;;;9.50;99.90;;;;;;5034264;28;20045;-88
2023/12/25 11:08:13;;;;;;;15.30;3.22;;;9.50;99.90;;;;;;5035781;28;20029;-88
2023/12/25 11:10:39;;;;;;;11.30;2.90;;;9.50;99.90;;;;;;5035483;28;20508;-89
2023/12/25 11:13:06;;;;;;;12.25;2.88;;;9.60;99.90;;;;;;5034435;28;20029;-88
2023/12/25 11:15:45;;;;;;;9.18;2.75;;;9.80;99.90;;;;;;5034975;28;20108;-89
2023/12/25 11:18:11;;;;;;;10.68;2.28;;;9.90;99.90;;;;;;5034424;28;20045;-89
2023/12/25 11:21:00;;;;;;;11.93;2.38;;;9.90;99.90;;;;;;5035600;28;20030;-89
2023/12/25 11:23:28;;;;;;;12.90;2.03;;;9.90;99.90;;;;;;5034281;28;20036;-88
2023/12/25 11:25:54;;;;;;;17.17;2.00;;;9.90;99.90;;;;;;5034072;28;20039;-89
2023/12/25 11:28:20;;;;;;;18.17;3.30;;;9.90;99.90;;;;;;5034416;28;20071;-89
2023/12/25 11:30:46;;;;;;;12.60;2.05;;;9.80;99.90;;;;;;5034030;28;20036;-90
2023/12/25 11:33:12;;;;;;;7.32;1.52;;;9.80;99.90;;;;;;5033940;28;20050;-90
2023/12/25 11:35:39;;;;;;;12.07;2.85;;;9.80;99.90;;;;;;5033892;28;20511;-88
2023/12/25 11:38:27;;;;;;;16.83;3.00;;;9.80;99.90;;;;;;5035291;28;20476;-89
2023/12/25 11:40:53;;;;;;;13.25;2.60;;;9.70;99.90;;;;;;5035881;28;20064;-89
2023/12/25 11:43:20;;;;;;;10.35;1.55;;;9.70;99.90;;;;;;5035890;28;20025;-89
2023/12/25 11:45:52;;;;;;;11.10;2.78;;;9.70;99.90;;;;;;5035312;28;20033;-88
2023/12/25 11:48:18;;;;;;;14.70;2.47;;;9.70;99.90;;;;;;5035730;28;20072;-89
2023/12/25 11:50:45;;;;;;;12.30;2.25;;;9.60;99.90;;;;;;5034268;28;20492;-90
2023/12/25 11:53:30;;;;;;;13.07;2.40;;;9.70;99.90;;;;;;5033617;28;20361;-88
2023/12/25 11:55:59;;;;;;;12.18;2.33;;;9.70;99.90;;;;;;5034829;28;20100;-89
2023/12/25 11:58:25;;;;;;;16.95;2.30;;;9.70;99.90;;;;;;5032876;28;20021;-88
2023/12/25 12:00:51;;;;;;;13.43;2.25;;;9.60;99.90;;;;;;5033405;28;20048;-89
2023/12/25 12:03:17;;;;;;;13.48;2.00;;;9.60;99.90;;;;;;5033338;28;20571;-88
2023/12/25 12:05:43;;;;;;;9.65;2.50;;;9.60;99.90;;;;;;5033143;28;20068;-89
2023/12/25 12:08:09;;;;;;;13.32;2.97;;;9.60;99.90;;;;;;5033218;28;20025;-88
2023/12/25 12:10:35;;;;;;;10.20;1.65;;;9.60;99.90;;;;;;5034325;28;20545;-89
2023/12/25 12:13:01;;;;;;;14.45;1.85;;;9.50;99.90;;;;;;5033214;28;20036;-89
2023/12/25 12:15:27;;;;;;;13.77;2.05;;;9.60;99.90;;;;;;5033109;28;20044;-88
2023/12/25 12:17:53;;;;;;;12.60;1.90;;;9.50;99.90;;;;;;5033147;28;20485;-88
2023/12/25 12:20:19;;;;;;;11.13;3.22;;;9.50;99.90;;;;;;5033830;28;20029;-89
2023/12/25 12:22:44;;;;;;;12.35;1.70;;;9.50;99.90;;;;;;5035596;28;20121;-89
2023/12/25 12:25:15;;;;;;;10.80;1.95;;;9.50;99.90;;;;;;5032962;28;20040;-88
2023/12/25 12:27:41;;;;;;;15.68;2.45;;;9.50;99.90;;;;;;5032766;28;20083;-90
2023/12/25 12:30:08;;;;;;;11.63;2.35;;;9.50;99.90;;;;;;5033178;28;20074;-89
2023/12/25 12:32:35;;;;;;;22.60;4.85;;;9.50;99.90;;;;;;5031371;28;20052;-89
2023/12/25 12:35:01;;;;;;;11.23;2.92;;;9.50;99.90;;;;;;5032841;28;20029;-90
2023/12/25 12:37:26;;;;;;;13.55;3.17;;;9.50;99.90;;;;;;5034136;28;20033;-89
2023/12/25 12:39:52;;;;;;;15.93;2.83;;;9.40;99.90;;;;;;5034719;28;20051;-89
2023/12/25 12:42:20;;;;;;;12.13;3.70;;;9.50;99.90;;;;;;5033158;28;20118;-88
2023/12/25 12:44:49;;;;;;;7.22;2.90;;;9.40;99.90;;;;;;5034726;28;20025;-89
2023/12/25 12:47:15;;;;;;;12.48;2.60;;;9.40;99.90;;;;;;5034218;28;20096;-89
2023/12/25 12:49:43;;;;;;;10.57;3.00;;;9.40;99.90;;;;;;5034607;28;20050;-90